sensor_id;sensor_type;location;lat;lon;timestamp;pressure;altitude;pressure_sealevel;temperature;humidity
33454;BME280;39400;49.744;7.012;2022-10-04T00:01:56;96682.63;;;7.31;100.00
33454;BME280;39400;49.744;7.012;2022-10-04T00:04:39;96679.88;;;7.31;100.00
33454;BME280;39400;49.744;7.012;2022-10-04T00:09:46;96679.78;;;7.11;100.00
33454;BME280;39400;49.744;7.012;2022-10-04T00:14:50;96667.44;;;7.02;100.00
33454;BME280;39400;49.744;7.012;2022-10-04T00:17:27;96675.91;;;7.12;100.00
33454;BME280;39400;49.744;7.012;2022-10-04T00:19:56;96673.00;;;7.21;100.00
33454;BME280;39400;49.744;7.012;2022-10-04T00:22:28;96671.59;;;7.11;100.00
33454;BME280;39400;49.744;7.012;2022-10-04T00:25:16;96668.72;;;7.24;100.00
33454;BME280;39400;49.744;7.012;2022-10-04T00:28:22;96671.47;;;7.24;100.00
33454;BME280;39400;49.744;7.012;2022-10-04T00:31:18;96662.41;;;7.20;100.00
33454;BME280;39400;49.744;7.012;2022-10-04T00:39:17;96672.66;;;7.07;100.00
33454;BME280;39400;49.744;7.012;2022-10-04T00:46:55;96668.19;;;6.71;100.00
33454;BME280;39400;49.744;7.012;2022-10-04T00:49:33;96658.59;;;6.93;100.00
33454;BME280;39400;49.744;7.012;2022-10-04T00:52:11;96652.50;;;6.99;100.00
33454;BME280;39400;49.744;7.012;2022-10-04T00:54:42;96656.34;;;7.10;100.00
33454;BME280;39400;49.744;7.012;2022-10-04T00:57:19;96651.28;;;6.81;100.00
33454;BME280;39400;49.744;7.012;2022-10-04T00:59:49;96654.47;;;7.14;100.00
33454;BME280;39400;49.744;7.012;2022-10-04T01:02:28;96645.97;;;7.20;100.00
33454;BME280;39400;49.744;7.012;2022-10-04T01:07:51;96637.00;;;7.19;100.00
33454;BME280;39400;49.744;7.012;2022-10-04T01:10:30;96637.34;;;7.18;100.00
33454;BME280;39400;49.744;7.012;2022-10-04T01:15:53;96635.03;;;7.20;100.00
33454;BME280;39400;49.744;7.012;2022-10-04T01:26:05;96635.50;;;7.06;100.00
33454;BME280;39400;49.744;7.012;2022-10-04T01:28:32;96632.78;;;6.90;100.00
33454;BME280;39400;49.744;7.012;2022-10-04T01:31:00;96628.91;;;6.91;100.00
33454;BME280;39400;49.744;7.012;2022-10-04T01:33:27;96617.69;;;6.64;100.00
33454;BME280;39400;49.744;7.012;2022-10-04T01:35:55;96624.13;;;6.88;100.00
33454;BME280;39400;49.744;7.012;2022-10-04T01:38:23;96614.41;;;7.06;100.00
33454;BME280;39400;49.744;7.012;2022-10-04T01:40:54;96614.78;;;7.21;100.00
33454;BME280;39400;49.744;7.012;2022-10-04T01:43:26;96601.88;;;7.21;100.00
33454;BME280;39400;49.744;7.012;2022-10-04T01:46:08;96610.00;;;7.18;100.00
33454;BME280;39400;49.744;7.012;2022-10-04T01:48:40;96603.84;;;7.21;100.00
33454;BME280;39400;49.744;7.012;2022-10-04T01:51:17;96607.44;;;7.09;100.00
33454;BME280;39400;49.744;7.012;2022-10-04T01:54:01;96603.38;;;7.03;100.00
33454;BME280;39400;49.744;7.012;2022-10-04T01:56:40;96606.06;;;6.83;100.00
33454;BME280;39400;49.744;7.012;2022-10-04T01:59:32;96599.06;;;6.54;100.00
33454;BME280;39400;49.744;7.012;2022-10-04T02:02:05;96588.47;;;6.37;100.00
33454;BME280;39400;49.744;7.012;2022-10-04T02:04:36;96592.88;;;6.26;100.00
33454;BME280;39400;49.744;7.012;2022-10-04T02:07:11;96585.50;;;6.42;100.00
33454;BME280;39400;49.744;7.012;2022-10-04T02:09:43;96577.75;;;6.44;100.00
33454;BME280;39400;49.744;7.012;2022-10-04T02:12:18;96576.06;;;6.24;100.00
33454;BME280;39400;49.744;7.012;2022-10-04T02:14:48;96569.47;;;6.56;100.00
33454;BME280;39400;49.744;7.012;2022-10-04T02:17:25;96569.13;;;6.42;100.00
33454;BME280;39400;49.744;7.012;2022-10-04T02:19:55;96554.47;;;6.50;100.00
33454;BME280;39400;49.744;7.012;2022-10-04T02:22:23;96567.09;;;6.71;100.00
33454;BME280;39400;49.744;7.012;2022-10-04T02:24:52;96561.38;;;6.60;100.00
33454;BME280;39400;49.744;7.012;2022-10-04T02:27:26;96562.41;;;6.71;100.00
33454;BME280;39400;49.744;7.012;2022-10-04T02:30:03;96552.91;;;6.81;100.00
33454;BME280;39400;49.744;7.012;2022-10-04T02:32:32;96552.28;;;6.56;100.00
33454;BME280;39400;49.744;7.012;2022-10-04T02:35:18;96554.63;;;6.89;100.00
33454;BME280;39400;49.744;7.012;2022-10-04T02:37:55;96552.63;;;6.86;100.00
33454;BME280;39400;49.744;7.012;2022-10-04T02:40:29;96541.41;;;6.91;100.00
33454;BME280;39400;49.744;7.012;2022-10-04T02:43:02;96543.38;;;6.75;100.00
33454;BME280;39400;49.744;7.012;2022-10-04T02:49:09;96537.31;;;6.65;100.00
33454;BME280;39400;49.744;7.012;2022-10-04T02:51:18;96548.50;;;6.60;100.00
33454;BME280;39400;49.744;7.012;2022-10-04T02:56:13;96548.31;;;6.53;100.00
33454;BME280;39400;49.744;7.012;2022-10-04T02:58:42;96545.84;;;6.80;100.00
33454;BME280;39400;49.744;7.012;2022-10-04T03:01:40;96533.50;;;6.86;100.00
33454;BME280;39400;49.744;7.012;2022-10-04T03:04:11;96544.16;;;6.91;100.00
33454;BME280;39400;49.744;7.012;2022-10-04T03:06:42;96550.00;;;6.74;100.00
33454;BME280;39400;49.744;7.012;2022-10-04T03:09:13;96556.59;;;6.73;100.00
33454;BME280;39400;49.744;7.012;2022-10-04T03:11:41;96555.34;;;6.54;100.00
33454;BME280;39400;49.744;7.012;2022-10-04T03:14:13;96555.47;;;6.74;100.00
33454;BME280;39400;49.744;7.012;2022-10-04T03:16:43;96556.00;;;6.79;100.00
33454;BME280;39400;49.744;7.012;2022-10-04T03:19:11;96556.44;;;6.65;100.00
33454;BME280;39400;49.744;7.012;2022-10-04T03:21:40;96562.13;;;6.92;100.00
33454;BME280;39400;49.744;7.012;2022-10-04T03:24:18;96553.50;;;6.90;100.00
33454;BME280;39400;49.744;7.012;2022-10-04T03:26:51;96561.88;;;6.97;100.00
33454;BME280;39400;49.744;7.012;2022-10-04T03:29:23;96556.41;;;6.97;100.00
33454;BME280;39400;49.744;7.012;2022-10-04T03:31:53;96559.09;;;7.13;100.00
33454;BME280;39400;49.744;7.012;2022-10-04T03:34:27;96550.63;;;7.18;100.00
33454;BME280;39400;49.744;7.012;2022-10-04T03:36:58;96557.75;;;7.23;100.00
33454;BME280;39400;49.744;7.012;2022-10-04T03:39:32;96549.91;;;7.21;100.00
33454;BME280;39400;49.744;7.012;2022-10-04T03:42:12;96552.03;;;7.28;100.00
33454;BME280;39400;49.744;7.012;2022-10-04T03:44:42;96557.34;;;7.40;100.00
33454;BME280;39400;49.744;7.012;2022-10-04T03:47:13;96551.16;;;7.43;100.00
33454;BME280;39400;49.744;7.012;2022-10-04T03:49:43;96559.53;;;7.31;100.00
33454;BME280;39400;49.744;7.012;2022-10-04T03:52:21;96565.84;;;7.35;100.00
33454;BME280;39400;49.744;7.012;2022-10-04T03:54:52;96557.19;;;7.33;100.00
33454;BME280;39400;49.744;7.012;2022-10-04T03:57:21;96539.53;;;7.11;100.00
33454;BME280;39400;49.744;7.012;2022-10-04T03:59:49;96549.84;;;7.18;100.00
33454;BME280;39400;49.744;7.012;2022-10-04T04:02:39;96550.88;;;7.29;100.00
33454;BME280;39400;49.744;7.012;2022-10-04T04:06:03;96553.16;;;7.27;100.00
33454;BME280;39400;49.744;7.012;2022-10-04T04:08:33;96540.16;;;7.04;100.00
33454;BME280;39400;49.744;7.012;2022-10-04T04:11:03;96548.41;;;6.73;100.00
33454;BME280;39400;49.744;7.012;2022-10-04T04:13:47;96544.75;;;7.00;100.00
33454;BME280;39400;49.744;7.012;2022-10-04T04:16:20;96545.09;;;7.14;100.00
33454;BME280;39400;49.744;7.012;2022-10-04T04:18:51;96548.97;;;7.13;100.00
33454;BME280;39400;49.744;7.012;2022-10-04T04:21:20;96553.50;;;6.74;100.00
33454;BME280;39400;49.744;7.012;2022-10-04T04:23:54;96556.69;;;6.60;100.00
33454;BME280;39400;49.744;7.012;2022-10-04T04:26:24;96552.72;;;6.42;100.00
33454;BME280;39400;49.744;7.012;2022-10-04T04:29:01;96550.78;;;6.42;100.00
33454;BME280;39400;49.744;7.012;2022-10-04T04:31:35;96550.97;;;6.65;100.00
33454;BME280;39400;49.744;7.012;2022-10-04T04:34:11;96543.00;;;6.92;100.00
33454;BME280;39400;49.744;7.012;2022-10-04T04:36:41;96532.59;;;6.82;100.00
33454;BME280;39400;49.744;7.012;2022-10-04T04:39:19;96524.47;;;7.01;100.00
33454;BME280;39400;49.744;7.012;2022-10-04T04:42:26;96513.91;;;6.84;100.00
33454;BME280;39400;49.744;7.012;2022-10-04T04:45:01;96513.53;;;7.01;100.00
33454;BME280;39400;49.744;7.012;2022-10-04T04:47:43;96509.88;;;6.78;100.00
33454;BME280;39400;49.744;7.012;2022-10-04T04:50:22;96515.78;;;6.80;100.00
33454;BME280;39400;49.744;7.012;2022-10-04T04:53:03;96507.75;;;6.87;100.00
33454;BME280;39400;49.744;7.012;2022-10-04T04:55:36;96511.44;;;6.79;100.00
33454;BME280;39400;49.744;7.012;2022-10-04T04:58:34;96514.75;;;6.53;100.00
33454;BME280;39400;49.744;7.012;2022-10-04T05:03:33;96508.84;;;6.66;100.00
33454;BME280;39400;49.744;7.012;2022-10-04T05:06:01;96506.16;;;6.86;100.00
33454;BME280;39400;49.744;7.012;2022-10-04T05:08:32;96506.66;;;6.91;100.00
33454;BME280;39400;49.744;7.012;2022-10-04T05:13:39;96508.31;;;6.96;100.00
33454;BME280;39400;49.744;7.012;2022-10-04T05:16:13;96506.16;;;6.86;100.00
33454;BME280;39400;49.744;7.012;2022-10-04T05:18:42;96494.47;;;6.70;100.00
33454;BME280;39400;49.744;7.012;2022-10-04T05:21:26;96505.31;;;6.50;100.00
33454;BME280;39400;49.744;7.012;2022-10-04T05:23:56;96505.66;;;6.64;100.00
33454;BME280;39400;49.744;7.012;2022-10-04T05:26:26;96505.03;;;6.71;100.00
33454;BME280;39400;49.744;7.012;2022-10-04T05:29:00;96510.56;;;6.75;100.00
33454;BME280;39400;49.744;7.012;2022-10-04T05:31:46;96502.50;;;6.62;100.00
33454;BME280;39400;49.744;7.012;2022-10-04T05:34:27;96511.47;;;6.47;100.00
33454;BME280;39400;49.744;7.012;2022-10-04T05:37:42;96513.34;;;6.27;100.00
33454;BME280;39400;49.744;7.012;2022-10-04T05:42:42;96515.19;;;6.39;100.00
33454;BME280;39400;49.744;7.012;2022-10-04T05:45:21;96515.88;;;6.36;100.00
33454;BME280;39400;49.744;7.012;2022-10-04T05:47:51;96516.16;;;6.31;100.00
33454;BME280;39400;49.744;7.012;2022-10-04T05:52:49;96518.91;;;6.31;100.00
33454;BME280;39400;49.744;7.012;2022-10-04T05:58:19;96508.03;;;6.50;100.00
33454;BME280;39400;49.744;7.012;2022-10-04T06:04:19;96508.84;;;6.66;100.00
33454;BME280;39400;49.744;7.012;2022-10-04T06:06:56;96514.63;;;6.81;100.00
33454;BME280;39400;49.744;7.012;2022-10-04T06:09:56;96510.19;;;6.92;100.00
33454;BME280;39400;49.744;7.012;2022-10-04T06:21:18;96515.78;;;6.80;100.00
33454;BME280;39400;49.744;7.012;2022-10-04T06:23:58;96513.53;;;7.01;100.00
33454;BME280;39400;49.744;7.012;2022-10-04T06:26:42;96517.66;;;7.11;100.00
33454;BME280;39400;49.744;7.012;2022-10-04T06:29:13;96527.19;;;7.01;100.00
33454;BME280;39400;49.744;7.012;2022-10-04T06:32:09;96526.91;;;7.06;100.00
33454;BME280;39400;49.744;7.012;2022-10-04T06:39:41;96520.56;;;7.18;100.00
33454;BME280;39400;49.744;7.012;2022-10-04T06:50:32;96511.00;;;7.47;100.00
33454;BME280;39400;49.744;7.012;2022-10-04T07:01:29;96522.25;;;7.42;100.00
33454;BME280;39400;49.744;7.012;2022-10-04T07:12:51;96528.25;;;8.09;100.00
33454;BME280;39400;49.744;7.012;2022-10-04T07:15:24;96523.03;;;8.24;100.00
33454;BME280;39400;49.744;7.012;2022-10-04T07:17:55;96524.91;;;8.39;100.00
33454;BME280;39400;49.744;7.012;2022-10-04T07:20:28;96527.16;;;8.56;100.00
33454;BME280;39400;49.744;7.012;2022-10-04T07:23:21;96523.25;;;8.57;100.00
33454;BME280;39400;49.744;7.012;2022-10-04T07:25:59;96539.50;;;8.47;100.00
33454;BME280;39400;49.744;7.012;2022-10-04T07:28:32;96533.16;;;8.66;100.00
33454;BME280;39400;49.744;7.012;2022-10-04T07:33:56;96535.00;;;8.81;100.00
33454;BME280;39400;49.744;7.012;2022-10-04T07:36:28;96536.63;;;8.86;100.00
33454;BME280;39400;49.744;7.012;2022-10-04T07:39:08;96539.41;;;8.89;100.00
33454;BME280;39400;49.744;7.012;2022-10-04T07:41:45;96542.59;;;8.91;100.00
33454;BME280;39400;49.744;7.012;2022-10-04T07:44:23;96539.47;;;8.93;100.00
33454;BME280;39400;49.744;7.012;2022-10-04T07:46:59;96530.88;;;8.94;100.00
33454;BME280;39400;49.744;7.012;2022-10-04T07:49:36;96544.72;;;9.01;100.00
33454;BME280;39400;49.744;7.012;2022-10-04T07:55:18;96544.28;;;9.26;100.00
33454;BME280;39400;49.744;7.012;2022-10-04T08:05:58;96543.50;;;9.25;100.00
33454;BME280;39400;49.744;7.012;2022-10-04T08:13:52;96529.47;;;9.94;100.00
33454;BME280;39400;49.744;7.012;2022-10-04T08:22:40;96515.06;;;10.42;100.00
33454;BME280;39400;49.744;7.012;2022-10-04T08:31:11;96505.25;;;10.89;100.00
33454;BME280;39400;49.744;7.012;2022-10-04T08:34:05;96511.63;;;11.04;100.00
33454;BME280;39400;49.744;7.012;2022-10-04T08:37:06;96506.84;;;10.93;100.00
33454;BME280;39400;49.744;7.012;2022-10-04T08:54:30;96505.22;;;11.48;100.00
33454;BME280;39400;49.744;7.012;2022-10-04T09:20:19;96506.19;;;11.87;100.00
33454;BME280;39400;49.744;7.012;2022-10-04T09:29:12;96509.06;;;12.23;100.00
33454;BME280;39400;49.744;7.012;2022-10-04T09:34:39;96496.50;;;12.58;100.00
33454;BME280;39400;49.744;7.012;2022-10-04T09:40:41;96491.78;;;12.69;100.00
33454;BME280;39400;49.744;7.012;2022-10-04T09:49:33;96496.09;;;13.13;100.00
33454;BME280;39400;49.744;7.012;2022-10-04T09:52:32;96501.97;;;13.37;100.00
33454;BME280;39400;49.744;7.012;2022-10-04T09:55:27;96507.50;;;13.22;100.00
33454;BME280;39400;49.744;7.012;2022-10-04T09:58:36;96501.16;;;13.40;100.00
33454;BME280;39400;49.744;7.012;2022-10-04T10:07:09;96524.88;;;13.34;100.00
33454;BME280;39400;49.744;7.012;2022-10-04T10:10:16;96518.53;;;13.47;100.00
33454;BME280;39400;49.744;7.012;2022-10-04T10:19:23;96512.94;;;13.72;100.00
33454;BME280;39400;49.744;7.012;2022-10-04T10:22:13;96507.41;;;13.69;100.00
33454;BME280;39400;49.744;7.012;2022-10-04T10:30:36;96520.78;;;13.77;100.00
33454;BME280;39400;49.744;7.012;2022-10-04T10:33:35;96519.63;;;13.71;100.00
33454;BME280;39400;49.744;7.012;2022-10-04T10:36:44;96512.84;;;13.90;100.00
33454;BME280;39400;49.744;7.012;2022-10-04T10:40:18;96514.28;;;14.16;100.00
33454;BME280;39400;49.744;7.012;2022-10-04T10:48:15;96515.28;;;14.55;100.00
33454;BME280;39400;49.744;7.012;2022-10-04T10:50:59;96515.66;;;14.60;100.00
33454;BME280;39400;49.744;7.012;2022-10-04T11:05:24;96519.84;;;15.28;100.00
33454;BME280;39400;49.744;7.012;2022-10-04T11:16:51;96510.22;;;14.98;100.00
33454;BME280;39400;49.744;7.012;2022-10-04T11:19:50;96510.41;;;15.21;100.00
33454;BME280;39400;49.744;7.012;2022-10-04T11:30:26;96502.78;;;15.71;100.00
33454;BME280;39400;49.744;7.012;2022-10-04T11:36:21;96494.22;;;15.54;100.00
33454;BME280;39400;49.744;7.012;2022-10-04T11:52:48;96472.38;;;16.25;94.03
33454;BME280;39400;49.744;7.012;2022-10-04T11:58:05;96464.94;;;15.87;95.70
33454;BME280;39400;49.744;7.012;2022-10-04T12:04:03;96475.31;;;16.10;95.80
33454;BME280;39400;49.744;7.012;2022-10-04T12:07:21;96468.66;;;16.35;98.57
33454;BME280;39400;49.744;7.012;2022-10-04T12:20:42;96459.75;;;16.47;94.03
33454;BME280;39400;49.744;7.012;2022-10-04T12:26:18;96457.34;;;16.73;95.17
33454;BME280;39400;49.744;7.012;2022-10-04T12:31:43;96457.25;;;16.80;89.80
33454;BME280;39400;49.744;7.012;2022-10-04T12:34:36;96451.25;;;16.85;91.39
33454;BME280;39400;49.744;7.012;2022-10-04T12:37:23;96454.47;;;16.80;91.75
33454;BME280;39400;49.744;7.012;2022-10-04T12:48:20;96443.88;;;16.98;87.05
33454;BME280;39400;49.744;7.012;2022-10-04T12:50:59;96433.84;;;17.04;86.88
33454;BME280;39400;49.744;7.012;2022-10-04T12:56:07;96436.44;;;17.15;86.80
33454;BME280;39400;49.744;7.012;2022-10-04T13:01:33;96438.06;;;17.13;84.42
33454;BME280;39400;49.744;7.012;2022-10-04T13:09:49;96451.53;;;17.14;86.62
33454;BME280;39400;49.744;7.012;2022-10-04T13:20:59;96441.78;;;17.26;85.00
33454;BME280;39400;49.744;7.012;2022-10-04T13:29:18;96431.34;;;17.53;85.38
33454;BME280;39400;49.744;7.012;2022-10-04T13:31:58;96431.81;;;17.48;83.46
33454;BME280;39400;49.744;7.012;2022-10-04T13:45:42;96450.78;;;24.36;62.83
33454;BME280;39400;49.744;7.012;2022-10-04T13:48:49;96435.25;;;30.09;41.51
33454;BME280;39400;49.744;7.012;2022-10-04T14:01:19;96418.75;;;31.14;32.67
33454;BME280;39400;49.744;7.012;2022-10-04T14:03:47;96407.09;;;32.29;31.84
33454;BME280;39400;49.744;7.012;2022-10-04T14:12:06;96398.13;;;32.13;31.14
33454;BME280;39400;49.744;7.012;2022-10-04T14:15:10;96401.28;;;32.46;31.99
33454;BME280;39400;49.744;7.012;2022-10-04T14:38:53;96415.16;;;30.74;31.78
33454;BME280;39400;49.744;7.012;2022-10-04T14:44:27;96421.25;;;29.77;32.27
33454;BME280;39400;49.744;7.012;2022-10-04T14:47:24;96416.31;;;29.67;33.17
33454;BME280;39400;49.744;7.012;2022-10-04T14:58:11;96411.19;;;29.65;32.62
33454;BME280;39400;49.744;7.012;2022-10-04T15:01:06;96400.59;;;27.18;35.64
33454;BME280;39400;49.744;7.012;2022-10-04T15:20:16;96387.31;;;30.56;31.30
33454;BME280;39400;49.744;7.012;2022-10-04T15:22:54;96381.59;;;29.23;32.69
33454;BME280;39400;49.744;7.012;2022-10-04T15:25:37;96377.75;;;30.08;32.26
33454;BME280;39400;49.744;7.012;2022-10-04T15:31:15;96386.22;;;28.72;34.49
33454;BME280;39400;49.744;7.012;2022-10-04T15:34:00;96406.09;;;29.26;33.70
33454;BME280;39400;49.744;7.012;2022-10-04T15:56:02;96345.75;;;31.56;31.85
33454;BME280;39400;49.744;7.012;2022-10-04T15:58:48;96344.25;;;32.57;30.59
33454;BME280;39400;49.744;7.012;2022-10-04T16:04:56;96334.63;;;25.50;40.52
33454;BME280;39400;49.744;7.012;2022-10-04T16:15:36;96335.03;;;24.47;42.55
33454;BME280;39400;49.744;7.012;2022-10-04T16:21:02;96341.25;;;23.02;48.24
33454;BME280;39400;49.744;7.012;2022-10-04T16:23:34;96343.53;;;22.67;49.54
33454;BME280;39400;49.744;7.012;2022-10-04T16:26:10;96341.25;;;21.41;52.68
33454;BME280;39400;49.744;7.012;2022-10-04T16:34:25;96342.16;;;21.59;55.17
33454;BME280;39400;49.744;7.012;2022-10-04T16:37:02;96344.28;;;20.64;57.84
33454;BME280;39400;49.744;7.012;2022-10-04T16:40:14;96341.44;;;20.89;59.66
33454;BME280;39400;49.744;7.012;2022-10-04T16:45:49;96351.03;;;20.28;61.37
33454;BME280;39400;49.744;7.012;2022-10-04T16:48:38;96356.06;;;19.82;62.81
33454;BME280;39400;49.744;7.012;2022-10-04T16:54:25;96354.38;;;19.72;66.28
33454;BME280;39400;49.744;7.012;2022-10-04T17:05:05;96366.69;;;18.54;72.39
33454;BME280;39400;49.744;7.012;2022-10-04T17:08:01;96368.75;;;18.83;73.60
33454;BME280;39400;49.744;7.012;2022-10-04T17:13:24;96381.97;;;18.14;78.73
33454;BME280;39400;49.744;7.012;2022-10-04T17:16:10;96382.78;;;17.38;82.55
33454;BME280;39400;49.744;7.012;2022-10-04T17:19:04;96383.63;;;17.15;81.57
33454;BME280;39400;49.744;7.012;2022-10-04T17:24:22;96400.09;;;17.66;81.70
33454;BME280;39400;49.744;7.012;2022-10-04T17:30:01;96401.44;;;17.18;84.00
33454;BME280;39400;49.744;7.012;2022-10-04T17:35:16;96410.84;;;16.80;88.45
33454;BME280;39400;49.744;7.012;2022-10-04T17:38:01;96411.84;;;16.67;90.44
33454;BME280;39400;49.744;7.012;2022-10-04T17:41:02;96412.56;;;16.47;93.85
33454;BME280;39400;49.744;7.012;2022-10-04T17:50:02;96409.78;;;16.47;95.43
33454;BME280;39400;49.744;7.012;2022-10-04T17:52:59;96401.31;;;15.77;97.61
33454;BME280;39400;49.744;7.012;2022-10-04T17:55:52;96408.13;;;15.99;97.42
33454;BME280;39400;49.744;7.012;2022-10-04T17:58:21;96411.59;;;15.45;100.00
33454;BME280;39400;49.744;7.012;2022-10-04T18:03:52;96400.41;;;15.18;100.00
33454;BME280;39400;49.744;7.012;2022-10-04T18:09:51;96401.41;;;15.69;100.00
33454;BME280;39400;49.744;7.012;2022-10-04T18:17:23;96408.44;;;15.43;100.00
33454;BME280;39400;49.744;7.012;2022-10-04T18:20:05;96401.72;;;15.41;100.00
33454;BME280;39400;49.744;7.012;2022-10-04T18:22:45;96416.94;;;15.26;100.00
33454;BME280;39400;49.744;7.012;2022-10-04T18:25:20;96424.88;;;15.23;100.00
33454;BME280;39400;49.744;7.012;2022-10-04T18:30:19;96430.47;;;15.20;100.00
33454;BME280;39400;49.744;7.012;2022-10-04T18:32:54;96424.06;;;15.27;100.00
33454;BME280;39400;49.744;7.012;2022-10-04T18:35:27;96424.22;;;15.12;100.00
33454;BME280;39400;49.744;7.012;2022-10-04T18:40:54;96421.47;;;14.67;100.00
33454;BME280;39400;49.744;7.012;2022-10-04T18:43:30;96414.19;;;14.88;100.00
33454;BME280;39400;49.744;7.012;2022-10-04T18:48:43;96417.50;;;14.68;100.00
33454;BME280;39400;49.744;7.012;2022-10-04T18:56:38;96425.41;;;13.48;100.00
33454;BME280;39400;49.744;7.012;2022-10-04T19:02:24;96433.38;;;13.14;100.00
33454;BME280;39400;49.744;7.012;2022-10-04T19:05:30;96434.91;;;13.32;100.00
33454;BME280;39400;49.744;7.012;2022-10-04T19:16:19;96447.97;;;14.06;100.00
33454;BME280;39400;49.744;7.012;2022-10-04T19:22:26;96446.72;;;13.37;100.00
33454;BME280;39400;49.744;7.012;2022-10-04T19:28:23;96453.91;;;12.88;100.00
33454;BME280;39400;49.744;7.012;2022-10-04T19:31:30;96450.69;;;13.21;100.00
33454;BME280;39400;49.744;7.012;2022-10-04T19:34:10;96455.34;;;13.53;100.00
33454;BME280;39400;49.744;7.012;2022-10-04T19:36:57;96457.00;;;13.29;100.00
33454;BME280;39400;49.744;7.012;2022-10-04T19:42:18;96459.38;;;13.30;100.00
33454;BME280;39400;49.744;7.012;2022-10-04T19:45:05;96452.25;;;13.22;100.00
33454;BME280;39400;49.744;7.012;2022-10-04T19:50:55;96451.50;;;13.18;100.00
33454;BME280;39400;49.744;7.012;2022-10-04T19:53:32;96455.91;;;12.76;100.00
33454;BME280;39400;49.744;7.012;2022-10-04T19:56:06;96461.41;;;12.76;100.00
33454;BME280;39400;49.744;7.012;2022-10-04T19:58:42;96454.66;;;13.13;100.00
33454;BME280;39400;49.744;7.012;2022-10-04T20:01:18;96464.53;;;13.07;100.00
33454;BME280;39400;49.744;7.012;2022-10-04T20:03:51;96465.72;;;12.92;100.00
33454;BME280;39400;49.744;7.012;2022-10-04T20:06:55;96458.59;;;13.12;100.00
33454;BME280;39400;49.744;7.012;2022-10-04T20:12:04;96467.34;;;12.85;100.00
33454;BME280;39400;49.744;7.012;2022-10-04T20:22:17;96466.53;;;12.96;100.00
33454;BME280;39400;49.744;7.012;2022-10-04T20:35:01;96461.25;;;11.76;100.00
33454;BME280;39400;49.744;7.012;2022-10-04T20:45:50;96441.72;;;12.53;100.00
33454;BME280;39400;49.744;7.012;2022-10-04T20:48:25;96435.81;;;12.44;100.00
33454;BME280;39400;49.744;7.012;2022-10-04T20:50:54;96431.09;;;12.51;100.00
33454;BME280;39400;49.744;7.012;2022-10-04T20:53:26;96433.84;;;12.33;100.00
33454;BME280;39400;49.744;7.012;2022-10-04T20:56:50;96440.88;;;11.99;100.00
33454;BME280;39400;49.744;7.012;2022-10-04T20:59:02;96428.19;;;11.76;100.00
33454;BME280;39400;49.744;7.012;2022-10-04T21:01:30;96435.69;;;11.79;100.00
33454;BME280;39400;49.744;7.012;2022-10-04T21:07:03;96420.22;;;11.42;100.00
33454;BME280;39400;49.744;7.012;2022-10-04T21:09:35;96418.22;;;11.39;100.00
33454;BME280;39400;49.744;7.012;2022-10-04T21:12:05;96423.00;;;11.53;100.00
33454;BME280;39400;49.744;7.012;2022-10-04T21:14:36;96415.19;;;11.73;100.00
33454;BME280;39400;49.744;7.012;2022-10-04T21:17:31;96422.22;;;11.53;100.00
33454;BME280;39400;49.744;7.012;2022-10-04T21:19:51;96412.28;;;11.23;100.00
33454;BME280;39400;49.744;7.012;2022-10-04T21:24:57;96416.72;;;11.56;100.00
33454;BME280;39400;49.744;7.012;2022-10-04T21:27:33;96415.19;;;11.73;100.00
33454;BME280;39400;49.744;7.012;2022-10-04T21:30:22;96421.59;;;11.95;100.00
33454;BME280;39400;49.744;7.012;2022-10-04T21:32:50;96426.59;;;11.61;100.00
33454;BME280;39400;49.744;7.012;2022-10-04T21:35:17;96412.78;;;11.54;100.00
33454;BME280;39400;49.744;7.012;2022-10-04T21:37:44;96415.25;;;11.87;100.00
33454;BME280;39400;49.744;7.012;2022-10-04T21:40:12;96407.72;;;11.74;100.00
33454;BME280;39400;49.744;7.012;2022-10-04T21:42:40;96408.94;;;11.83;100.00
33454;BME280;39400;49.744;7.012;2022-10-04T21:45:07;96411.34;;;11.88;100.00
33454;BME280;39400;49.744;7.012;2022-10-04T21:47:34;96413.69;;;11.86;100.00
33454;BME280;39400;49.744;7.012;2022-10-04T21:50:03;96405.03;;;11.88;100.00
33454;BME280;39400;49.744;7.012;2022-10-04T21:52:32;96404.22;;;11.87;100.00
33454;BME280;39400;49.744;7.012;2022-10-04T21:54:59;96408.91;;;11.69;100.00
33454;BME280;39400;49.744;7.012;2022-10-04T21:57:26;96395.59;;;11.93;100.00
33454;BME280;39400;49.744;7.012;2022-10-04T22:00:00;96396.31;;;11.68;100.00
33454;BME280;39400;49.744;7.012;2022-10-04T22:02:38;96398.63;;;11.59;100.00
33454;BME280;39400;49.744;7.012;2022-10-04T22:05:05;96403.34;;;11.48;100.00
33454;BME280;39400;49.744;7.012;2022-10-04T22:07:32;96402.53;;;11.43;100.00
33454;BME280;39400;49.744;7.012;2022-10-04T22:09:59;96396.28;;;11.54;100.00
33454;BME280;39400;49.744;7.012;2022-10-04T22:12:26;96402.22;;;11.77;100.00
33454;BME280;39400;49.744;7.012;2022-10-04T22:14:53;96407.31;;;11.64;100.00
33454;BME280;39400;49.744;7.012;2022-10-04T22:17:20;96412.78;;;11.50;100.00
33454;BME280;39400;49.744;7.012;2022-10-04T22:19:47;96414.38;;;11.55;100.00
33454;BME280;39400;49.744;7.012;2022-10-04T22:22:15;96411.09;;;11.24;100.00
33454;BME280;39400;49.744;7.012;2022-10-04T22:24:43;96417.00;;;11.19;100.00
33454;BME280;39400;49.744;7.012;2022-10-04T22:27:13;96422.09;;;11.24;100.00
33454;BME280;39400;49.744;7.012;2022-10-04T22:29:43;96423.69;;;11.25;100.00
33454;BME280;39400;49.744;7.012;2022-10-04T22:32:21;96427.09;;;11.01;100.00
33454;BME280;39400;49.744;7.012;2022-10-04T22:34:59;96432.44;;;10.72;100.00
33454;BME280;39400;49.744;7.012;2022-10-04T22:37:28;96425.78;;;10.80;100.00
33454;BME280;39400;49.744;7.012;2022-10-04T22:39:57;96430.44;;;10.69;100.00
33454;BME280;39400;49.744;7.012;2022-10-04T22:42:27;96436.75;;;10.73;100.00
33454;BME280;39400;49.744;7.012;2022-10-04T22:45:00;96426.22;;;10.82;100.00
33454;BME280;39400;49.744;7.012;2022-10-04T22:47:34;96423.47;;;10.82;100.00
33454;BME280;39400;49.744;7.012;2022-10-04T22:50:05;96436.84;;;10.87;100.00